Custom Search

Airport METAR Reports

 

YMAV - Avalon Airport, Australia
Distance from station: 0 0km
Updated: 17/08/2018 03:30
Clear
Clear
 Wind from NNW
Wind: NNW 7 km/h
Temperature: 4°C
Wind Chill: 2°C
Dew Point: 3°C
Humidity: 93%
Barometer: 1012 hPa
Clouds: Clear
Visibility: 10 km
2018/08/16 17:30 YMAV 161730Z AUTO 33004KT 9999 // NCD 04/03 Q1012 RF00.0/000.0
YMML - Melbourne Intl A, Australia
Distance from station: NE 50km
Updated: 17/08/2018 03:30
Clear
Clear
 Wind from N
Wind: N 17 km/h
Temperature: 7°C
Wind Chill: 4°C
Dew Point: 2°C
Humidity: 71%
Barometer: 1013 hPa
Summary: Clear
Visibility: greater than 10 km
2018/08/16 17:30 YMML 161730Z 35009KT CAVOK 07/02 Q1013 NOSIG
YMEN - Melbourne/Essend, Australia
Distance from station: NE 51km
Updated: 17/08/2018 03:00
Overcast
Overcast
 Wind from N
Wind: N 9 km/h
Temperature: 7°C
Wind Chill: 6°C
Dew Point: 4°C
Humidity: 81%
Barometer: 1013 hPa
Clouds: Overcast
Visibility: 10 km
Cloud details: Overcast 2316 m
2018/08/16 17:00 YMEN 161700Z AUTO 35005KT 9999 // OVC076 07/04 Q1013
 
YWGT - Wangaratta Arp, Australia
Distance from station: NE 241km
Updated: 17/08/2018 03:00
Overcast
Overcast
 Wind from calm
Wind: Calm
Temperature: 4°C
Dew Point: 4°C
Humidity: 100%
Barometer: 1015 hPa
Clouds: Overcast
Visibility: 10 km
Cloud details: Overcast 2347 m
2018/08/16 17:00 YWGT 161700Z AUTO 00000KT 9999 // OVC077 04/04 Q1015
YMAY - Albury Airport, Australia
Distance from station: NE 308km
Updated: 17/08/2018 03:51
Partly cloudy
Partly cloudy
 Wind from NW
Wind: NW 6 km/h
Temperature: 2°C
Dew Point: 2°C
Humidity: 100%
Barometer: 1015 hPa
Clouds: Partly cloudy
Visibility: 10 km
Cloud details: Partly cloudy 2256 m
2018/08/16 17:51 YMAY 161751Z AUTO 31003KT 9999 // SCT074 02/02 Q1015
YMTG - Mount Gambier, Australia
Distance from station: W 326km
Updated: 17/08/2018 03:00
Partly cloudy
Partly cloudy
 Wind from N
Wind: N 15 km/h
Temperature: 6°C
Wind Chill: 3°C
Dew Point: 6°C
Humidity: 100%
Barometer: 1012 hPa
Clouds: Partly cloudy
Visibility: 10 km
Cloud details: Partly cloudy 1189 m
2018/08/16 17:00 YMTG 161700Z AUTO 36008KT 9999 // SCT039 06/06 Q1012
 
YNAR - Narrandera, Australia
Distance from station: NNE 413km
Updated: 17/08/2018 03:00

 Wind from calm
Wind: Calm
Temperature: 8°C
Dew Point: 4°C
Humidity: 76%
Barometer: 1015 hPa
2018/08/16 17:00 YNAR 161700Z AUTO 00000KT //// // ////// 08/04 Q1015
YSWG - Wagga Wagga(Cv/M, Australia
Distance from station: NE 418km
Updated: 17/08/2018 03:00
Overcast
Overcast
 Wind from calm
Wind: Calm
Temperature: 4°C
Dew Point: 4°C
Humidity: 100%
Barometer: 1014 hPa
Clouds: Overcast
Visibility: 10 km
Cloud details: Overcast 2225 m
2018/08/16 17:00 YSWG 161700Z AUTO 00000KT 9999 // OVC073 04/04 Q1014
YCOM - Cooma Snowy Mtns, Australia
Distance from station: ENE 441km
Updated: 17/08/2018 03:00
Clear
Clear
 Wind from calm
Wind: Calm
Temperature: -6°C
Dew Point: -8°C
Humidity: 86%
Barometer: 1013 hPa
Clouds: Clear
Visibility: 10 km
2018/08/16 17:00 YCOM 161700Z AUTO 00000KT 9999 // NCD M06/M08 Q1013
 
YGTH - Griffith Arpt, Australia
Distance from station: NNE 444km
Updated: 17/08/2018 03:00
Overcast
Overcast
 Wind from N
Wind: N 6 km/h
Temperature: 8°C
Dew Point: 4°C
Humidity: 76%
Barometer: 1015 hPa
Clouds: Overcast
Visibility: 10 km
Cloud details: Overcast 2256 m
2018/08/16 17:00 YGTH 161700Z AUTO 36003KT 9999 // OVC074 08/04 Q1015
YMLT - Launceston Airpo, Australia
Distance from station: SSE 451km
Updated: 17/08/2018 03:30
Clear
Clear
 Wind from NNW
Wind: NNW 19 km/h
Temperature: 3°C
Wind Chill: -2°C
Dew Point: 1°C
Humidity: 87%
Barometer: 1008 hPa
Clouds: Clear
Visibility: 10 km
2018/08/16 17:30 YMLT 161730Z AUTO 33010KT 9999 // NCD 03/01 Q1008 RF00.0/000.2
YMIA - Mildura Arpt, Australia
Distance from station: NNW 474km
Updated: 17/08/2018 03:00
Clear
Clear
 Wind from W
Wind: W 9 km/h
Temperature: 7°C
Wind Chill: 6°C
Dew Point: 3°C
Humidity: 76%
Barometer: 1016 hPa
Clouds: Clear
Visibility: 10 km
2018/08/16 17:00 YMIA 161700Z AUTO 28005KT 9999 // NCD 07/03 Q1016
 
YMER - Merimbula Arpt, Australia
Distance from station: ENE 494km
Updated: 17/08/2018 03:00
Clear
Clear
 Wind from NW
Wind: NW 6 km/h
Temperature: 5°C
Dew Point: 3°C
Humidity: 87%
Barometer: 1013 hPa
Clouds: Clear
Visibility: 10 km
2018/08/16 17:00 YMER 161700Z AUTO 31003KT 9999 // NCD 05/03 Q1013
YSCB - Canberra (civ/Mi, Australia
Distance from station: NE 518km
Updated: 17/08/2018 03:30
Clear
Clear
 Wind from calm
Wind: Calm
Temperature: -4°C
Dew Point: -6°C
Humidity: 86%
Barometer: 1014 hPa
Clouds: Clear
Visibility: 10 km
2018/08/16 17:30 YSCB 161730Z AUTO 00000KT 9999 // NCD M04/M06 Q1014
YMHB - Hobart/Tasmania, Australia
Distance from station: SSE 590km
Updated: 17/08/2018 03:30
Mostly cloudy
Mostly cloudy
 Wind from NNW
Wind: NNW 9 km/h
Temperature: 7°C
Wind Chill: 6°C
Dew Point: 2°C
Humidity: 71%
Barometer: 1006 hPa
Clouds: Mostly cloudy
Visibility: 10 km
Cloud details: Few Clouds 1524 m
Mostly cloudy 5639 m
2018/08/16 17:30 YMHB 161730Z 34005KT 9999 FEW050 BKN185 07/02 Q1006 RF00.0/000.0